Time;durP1;ratioP1;P1;durP2;ratioP2;P2;SDS_P1;SDS_P2;PMS_P1;PMS_P2;Temp;Humidity;BMP_temperature;BMP_pressure;BME280_temperature;BME280_humidity;BME280_pressure;Samples;Min_cycle;Max_cycle;Signal;HPM_P1;HPM_P2
2021/04/01 00:01:10;;;;;;;7.20;6.50;;;13.50;59.40;;;;;;4824687;29;20535;-79
2021/04/01 00:03:37;;;;;;;9.07;6.47;;;13.50;59.70;;;;;;4824420;29;20963;-78
2021/04/01 00:06:03;;;;;;;8.20;6.60;;;13.40;60.10;;;;;;4824448;29;20839;-78
2021/04/01 00:08:30;;;;;;;7.10;6.40;;;13.40;59.80;;;;;;4824397;29;20490;-78
2021/04/01 00:10:56;;;;;;;7.23;6.53;;;13.40;59.90;;;;;;4824335;29;20525;-79
2021/04/01 00:13:23;;;;;;;8.03;7.33;;;13.30;60.40;;;;;;4823970;29;20459;-79
2021/04/01 00:15:51;;;;;;;13.20;7.67;;;13.30;60.60;;;;;;4824494;29;20463;-79
2021/04/01 00:18:19;;;;;;;7.93;7.20;;;13.30;60.70;;;;;;4824422;29;20545;-78
2021/04/01 00:20:46;;;;;;;10.27;7.30;;;13.20;61.10;;;;;;4824464;29;20517;-79
2021/04/01 00:23:13;;;;;;;12.40;8.97;;;13.20;61.00;;;;;;4824086;29;20463;-78
2021/04/01 00:25:40;;;;;;;8.47;7.67;;;13.10;61.00;;;;;;4824296;29;20463;-79
2021/04/01 00:28:07;;;;;;;7.63;6.73;;;13.10;61.40;;;;;;4824079;29;20482;-78
2021/04/01 00:30:35;;;;;;;9.70;8.03;;;13.10;61.90;;;;;;4824805;29;20466;-78
2021/04/01 00:33:01;;;;;;;9.13;8.30;;;13.00;62.20;;;;;;4823827;29;20984;-78
2021/04/01 00:35:27;;;;;;;10.93;8.03;;;13.00;62.40;;;;;;4823930;29;20848;-78
2021/04/01 00:37:53;;;;;;;7.90;7.20;;;13.00;62.40;;;;;;4823792;29;20524;-78
2021/04/01 00:40:21;;;;;;;8.80;7.60;;;12.90;62.70;;;;;;4823862;29;20800;-79
2021/04/01 00:42:48;;;;;;;8.00;7.30;;;12.90;63.10;;;;;;4823850;29;20881;-78
2021/04/01 00:45:15;;;;;;;8.40;7.40;;;12.80;63.90;;;;;;4823991;29;20474;-78
2021/04/01 00:47:44;;;;;;;7.23;6.40;;;12.80;64.20;;;;;;4824231;29;20475;-78
2021/04/01 00:50:13;;;;;;;10.83;7.07;;;12.80;64.60;;;;;;4836264;29;20480;-76
2021/04/01 00:52:40;;;;;;;9.13;7.70;;;12.70;64.60;;;;;;4837052;29;20461;-76
2021/04/01 00:55:08;;;;;;;9.90;7.10;;;12.70;64.80;;;;;;4835053;29;20487;-79
2021/04/01 00:57:35;;;;;;;7.73;6.93;;;12.70;64.90;;;;;;4823784;29;20494;-79
2021/04/01 01:00:03;;;;;;;8.60;7.63;;;12.60;64.90;;;;;;4823853;29;20869;-79
2021/04/01 01:02:29;;;;;;;8.43;7.63;;;12.60;65.00;;;;;;4822501;29;20459;-79
2021/04/01 01:04:58;;;;;;;7.23;6.63;;;12.60;65.30;;;;;;4823702;29;20524;-79
2021/04/01 01:07:24;;;;;;;9.17;5.77;;;12.60;65.60;;;;;;4823545;29;20898;-79
2021/04/01 01:09:51;;;;;;;8.33;6.70;;;12.50;65.60;;;;;;4823852;29;20527;-79
2021/04/01 01:12:17;;;;;;;7.53;6.77;;;12.50;65.80;;;;;;4823423;29;20459;-78
2021/04/01 01:14:43;;;;;;;8.57;6.80;;;12.40;65.70;;;;;;4823659;29;20470;-79
2021/04/01 01:17:09;;;;;;;6.93;6.33;;;12.40;65.80;;;;;;4823422;29;20502;-78
2021/04/01 01:19:38;;;;;;;8.03;6.10;;;12.40;66.20;;;;;;4823557;29;20851;-79
2021/04/01 01:22:06;;;;;;;7.33;6.63;;;12.40;67.20;;;;;;4823123;29;20463;-79
2021/04/01 01:24:33;;;;;;;8.50;7.60;;;12.30;67.60;;;;;;4823303;29;20886;-78
2021/04/01 01:27:00;;;;;;;8.10;6.87;;;12.30;68.30;;;;;;4823413;29;20475;-78
2021/04/01 01:29:27;;;;;;;7.80;6.47;;;12.20;68.50;;;;;;4823396;29;20993;-78
2021/04/01 01:31:53;;;;;;;9.33;7.10;;;12.20;68.50;;;;;;4823108;29;20455;-79
2021/04/01 01:34:20;;;;;;;7.50;6.80;;;12.20;68.80;;;;;;4823290;29;20958;-77
2021/04/01 01:36:47;;;;;;;12.10;7.17;;;12.20;69.10;;;;;;4822984;29;20486;-78
2021/04/01 01:39:13;;;;;;;6.40;5.57;;;12.10;69.40;;;;;;4823422;29;20458;-79
2021/04/01 01:41:40;;;;;;;8.77;6.67;;;12.10;69.80;;;;;;4822865;29;20463;-78
2021/04/01 01:44:07;;;;;;;6.53;5.80;;;12.10;70.10;;;;;;4823404;29;20463;-78
2021/04/01 01:46:33;;;;;;;8.70;7.83;;;12.00;70.10;;;;;;4823268;29;20479;-79
2021/04/01 01:49:00;;;;;;;15.20;7.97;;;12.00;70.00;;;;;;4823143;29;20462;-78
2021/04/01 01:51:28;;;;;;;7.87;6.60;;;12.00;70.20;;;;;;4822915;29;20463;-79
2021/04/01 01:53:54;;;;;;;7.13;6.30;;;12.00;70.30;;;;;;4823181;29;20532;-79
2021/04/01 01:56:21;;;;;;;6.30;5.50;;;11.90;70.30;;;;;;4823167;29;20462;-78
2021/04/01 01:58:49;;;;;;;13.40;8.30;;;11.90;70.50;;;;;;4822985;29;20495;-78
2021/04/01 02:01:17;;;;;;;10.23;6.63;;;11.90;70.60;;;;;;4823170;29;20477;-78
2021/04/01 02:03:43;;;;;;;10.87;7.90;;;11.90;70.80;;;;;;4822876;29;20470;-78
2021/04/01 02:06:11;;;;;;;17.13;9.00;;;11.90;71.00;;;;;;4822513;29;20455;-79
2021/04/01 02:08:37;;;;;;;10.53;7.90;;;11.90;71.20;;;;;;4822041;29;20446;-79
2021/04/01 02:11:03;;;;;;;13.10;8.33;;;11.90;71.40;;;;;;4822673;29;20494;-76
2021/04/01 02:13:30;;;;;;;10.40;7.63;;;11.90;71.50;;;;;;4824342;29;20559;-78
2021/04/01 02:15:57;;;;;;;10.33;8.43;;;11.80;71.40;;;;;;4826027;29;20458;-78
2021/04/01 02:18:26;;;;;;;13.33;8.33;;;11.80;71.50;;;;;;4825864;29;20518;-78
2021/04/01 02:20:55;;;;;;;11.27;8.30;;;11.80;71.50;;;;;;4826102;29;20494;-78
2021/04/01 02:23:23;;;;;;;8.17;6.77;;;11.80;71.60;;;;;;4825995;29;20565;-79
2021/04/01 02:25:50;;;;;;;9.03;7.73;;;11.80;71.70;;;;;;4826029;29;20550;-79
2021/04/01 02:28:18;;;;;;;7.80;7.10;;;11.80;71.80;;;;;;4825836;29;20982;-78
2021/04/01 02:30:47;;;;;;;8.90;8.00;;;11.80;72.00;;;;;;4825759;29;20493;-78
2021/04/01 02:33:15;;;;;;;13.13;9.10;;;11.80;72.40;;;;;;4825769;29;20469;-79
2021/04/01 02:35:41;;;;;;;15.40;8.73;;;11.80;72.80;;;;;;4825986;29;20463;-79
2021/04/01 02:38:08;;;;;;;10.00;7.73;;;11.80;73.10;;;;;;4825525;29;20503;-78
2021/04/01 02:40:35;;;;;;;13.00;9.33;;;11.80;73.40;;;;;;4825722;29;20466;-78
2021/04/01 02:43:03;;;;;;;10.80;8.20;;;11.80;73.50;;;;;;4825481;29;20459;-79
2021/04/01 02:45:29;;;;;;;10.13;9.13;;;11.80;73.80;;;;;;4825392;29;20484;-78
2021/04/01 02:47:55;;;;;;;9.20;8.20;;;11.70;73.80;;;;;;4825741;29;20474;-78
2021/04/01 02:50:23;;;;;;;10.60;9.43;;;11.80;74.10;;;;;;4825812;29;20462;-79
2021/04/01 02:52:49;;;;;;;12.73;9.40;;;11.70;74.10;;;;;;4825245;29;20518;-78
2021/04/01 02:55:16;;;;;;;11.73;9.33;;;11.70;74.20;;;;;;4825584;29;20462;-79
2021/04/01 02:57:42;;;;;;;9.70;8.70;;;11.70;73.90;;;;;;4825468;29;20499;-78
2021/04/01 03:00:12;;;;;;;9.47;8.47;;;11.70;73.80;;;;;;4826137;29;20943;-78
2021/04/01 03:02:43;;;;;;;11.67;8.77;;;11.70;73.50;;;;;;4825368;29;20463;-78
2021/04/01 03:05:11;;;;;;;12.90;8.70;;;11.70;73.60;;;;;;4825441;29;20888;-78
2021/04/01 03:07:39;;;;;;;11.63;9.43;;;11.70;74.10;;;;;;4825234;29;21072;-78
2021/04/01 03:10:07;;;;;;;11.27;9.90;;;11.70;74.40;;;;;;4825377;29;20884;-79
2021/04/01 03:12:33;;;;;;;10.67;8.27;;;11.70;74.70;;;;;;4824957;29;20467;-79
2021/04/01 03:15:00;;;;;;;12.83;9.00;;;11.70;75.00;;;;;;4825657;29;20475;-79
2021/04/01 03:17:26;;;;;;;14.37;8.90;;;11.70;75.20;;;;;;4825208;29;20489;-78
2021/04/01 03:19:52;;;;;;;10.23;8.90;;;11.60;75.50;;;;;;4825261;29;20475;-79
2021/04/01 03:22:18;;;;;;;8.87;7.90;;;11.60;75.80;;;;;;4824837;29;20812;-79
2021/04/01 03:24:45;;;;;;;10.83;8.60;;;11.60;76.00;;;;;;4824161;29;20584;-78
2021/04/01 03:27:12;;;;;;;9.60;8.60;;;11.60;76.10;;;;;;4824853;29;21041;-79
2021/04/01 03:29:38;;;;;;;9.23;8.10;;;11.60;76.10;;;;;;4825281;29;20470;-79
2021/04/01 03:32:05;;;;;;;12.27;8.90;;;11.60;76.10;;;;;;4824878;29;20871;-78
2021/04/01 03:34:31;;;;;;;12.63;8.10;;;11.60;76.20;;;;;;4824954;29;20455;-77
2021/04/01 03:36:58;;;;;;;10.97;8.27;;;11.50;76.10;;;;;;4824836;29;20544;-78
2021/04/01 03:39:24;;;;;;;8.33;7.47;;;11.50;76.30;;;;;;4824998;29;20463;-80
2021/04/01 03:41:51;;;;;;;10.90;8.17;;;11.50;76.30;;;;;;4824488;29;20545;-78
2021/04/01 03:44:17;;;;;;;9.17;8.40;;;11.60;76.20;;;;;;4824955;29;20465;-78
2021/04/01 03:46:44;;;;;;;11.70;8.40;;;11.50;76.10;;;;;;4824550;29;20478;-79
2021/04/01 03:49:10;;;;;;;10.23;8.27;;;11.50;76.30;;;;;;4824667;29;20462;-77
2021/04/01 03:51:36;;;;;;;8.93;8.03;;;11.50;76.50;;;;;;4824420;29;20493;-78
2021/04/01 03:54:02;;;;;;;9.50;7.57;;;11.40;76.50;;;;;;4824797;29;20477;-78
2021/04/01 03:56:29;;;;;;;9.77;7.63;;;11.40;76.60;;;;;;4824515;29;20939;-78
2021/04/01 03:59:02;;;;;;;11.40;8.97;;;11.40;76.80;;;;;;4824419;29;20501;-79
2021/04/01 04:04:23;;;;;;;8.40;7.40;;;11.40;77.20;;;;;;4824469;29;20470;-79
2021/04/01 04:09:52;;;;;;;8.17;7.33;;;11.30;77.70;;;;;;4805409;29;20519;-78
2021/04/01 04:12:26;;;;;;;12.80;8.30;;;11.30;77.80;;;;;;4824341;29;20466;-78
2021/04/01 04:15:04;;;;;;;10.90;7.30;;;11.30;78.00;;;;;;4827400;29;20473;-78
2021/04/01 04:17:30;;;;;;;8.47;6.60;;;11.30;78.30;;;;;;4828158;29;20508;-78
2021/04/01 04:19:56;;;;;;;9.77;8.10;;;11.20;78.70;;;;;;4828139;29;20493;-79
2021/04/01 04:22:23;;;;;;;9.47;7.63;;;11.20;79.10;;;;;;4827938;29;20507;-79
2021/04/01 04:24:49;;;;;;;11.27;7.97;;;11.20;79.20;;;;;;4828015;29;20829;-79
2021/04/01 04:27:31;;;;;;;10.47;8.20;;;11.20;79.50;;;;;;4828865;29;20483;-79
2021/04/01 04:30:00;;;;;;;14.53;8.70;;;11.20;79.60;;;;;;4828517;29;20463;-79
2021/04/01 04:32:26;;;;;;;8.17;7.47;;;11.20;79.80;;;;;;4828104;29;20463;-79
2021/04/01 04:34:52;;;;;;;10.13;9.03;;;11.10;80.00;;;;;;4827641;29;20458;-79
2021/04/01 04:37:19;;;;;;;9.60;7.03;;;11.10;80.10;;;;;;4827518;29;20512;-79
2021/04/01 04:39:45;;;;;;;8.97;7.47;;;11.10;80.30;;;;;;4827820;29;20470;-79
2021/04/01 04:42:11;;;;;;;9.20;7.30;;;11.10;80.10;;;;;;4827296;29;20465;-79
2021/04/01 04:44:37;;;;;;;12.90;7.53;;;11.10;80.00;;;;;;4827882;29;20462;-78
2021/04/01 04:47:05;;;;;;;8.27;7.40;;;11.10;80.10;;;;;;4827647;29;20481;-78
2021/04/01 04:49:31;;;;;;;9.70;8.80;;;11.10;80.20;;;;;;4827788;29;20469;-79
2021/04/01 04:51:58;;;;;;;10.67;8.33;;;11.10;80.40;;;;;;4827378;29;20466;-79
2021/04/01 04:54:27;;;;;;;8.87;7.13;;;11.10;80.60;;;;;;4827797;29;20525;-78
2021/04/01 04:56:53;;;;;;;8.30;7.50;;;11.10;80.70;;;;;;4827473;29;20946;-79
2021/04/01 04:59:25;;;;;;;9.73;7.20;;;11.10;80.60;;;;;;4827352;29;20454;-78
2021/04/01 05:04:40;;;;;;;10.90;7.83;;;11.10;80.50;;;;;;4827534;29;20476;-79
2021/04/01 05:07:06;;;;;;;14.57;8.40;;;11.10;80.80;;;;;;4827490;29;20482;-78
2021/04/01 05:09:33;;;;;;;10.50;7.70;;;11.10;80.90;;;;;;4827500;29;20455;-78
2021/04/01 05:11:59;;;;;;;14.23;7.90;;;11.10;81.00;;;;;;4827349;29;21034;-78
2021/04/01 05:14:25;;;;;;;8.73;7.80;;;11.10;81.00;;;;;;4827734;29;20467;-78
2021/04/01 05:16:51;;;;;;;8.40;6.60;;;11.10;81.00;;;;;;4828029;29;20479;-78
2021/04/01 05:19:19;;;;;;;8.43;7.50;;;11.10;81.40;;;;;;4827386;29;21114;-78
2021/04/01 05:21:51;;;;;;;9.83;7.50;;;11.10;81.50;;;;;;4826566;29;20466;-79
2021/04/01 05:24:19;;;;;;;7.07;6.47;;;11.20;81.70;;;;;;4826892;29;20494;-79
2021/04/01 05:27:07;;;;;;;9.03;7.97;;;11.20;81.60;;;;;;4827356;29;20517;-78
2021/04/01 05:29:35;;;;;;;11.27;9.03;;;11.20;81.60;;;;;;4827541;29;20462;-78
2021/04/01 05:32:03;;;;;;;10.20;7.97;;;11.20;81.70;;;;;;4826729;29;20553;-79
2021/04/01 05:34:29;;;;;;;15.77;7.47;;;11.20;81.70;;;;;;4827004;29;20462;-79
2021/04/01 05:36:58;;;;;;;11.80;8.10;;;11.30;82.10;;;;;;4829016;29;20486;-77
2021/04/01 05:39:27;;;;;;;8.57;7.37;;;11.30;82.00;;;;;;4830244;29;20459;-77
2021/04/01 05:41:54;;;;;;;8.93;8.03;;;11.40;81.80;;;;;;4830166;29;20469;-77
2021/04/01 05:44:26;;;;;;;9.87;7.27;;;11.40;81.60;;;;;;4829877;29;20558;-79
2021/04/01 05:46:58;;;;;;;8.37;7.60;;;11.50;81.40;;;;;;4827347;29;20490;-79
2021/04/01 05:49:39;;;;;;;12.00;8.00;;;11.50;81.20;;;;;;4830521;29;20459;-79
2021/04/01 05:58:09;;;;;;;7.87;7.00;;;11.70;80.90;;;;;;4829738;29;20509;-80
2021/04/01 06:00:52;;;;;;;10.00;6.93;;;11.80;81.20;;;;;;4829926;29;20530;-79
2021/04/01 06:03:32;;;;;;;8.73;6.93;;;11.80;81.50;;;;;;4829356;29;20466;-79
2021/04/01 06:06:01;;;;;;;12.73;8.43;;;11.90;81.50;;;;;;4829950;29;20632;-79
2021/04/01 06:08:31;;;;;;;17.20;8.90;;;12.00;81.40;;;;;;4829760;29;20486;-78
2021/04/01 06:10:58;;;;;;;17.60;9.07;;;12.10;81.30;;;;;;4830493;29;20458;-79
2021/04/01 06:13:31;;;;;;;12.73;8.70;;;12.20;81.00;;;;;;4829378;29;20834;-78
2021/04/01 06:16:03;;;;;;;14.60;9.20;;;12.30;80.60;;;;;;4829931;29;20458;-79
2021/04/01 06:18:34;;;;;;;15.00;8.90;;;12.40;80.50;;;;;;4829879;29;20501;-79
2021/04/01 06:21:11;;;;;;;14.30;9.33;;;12.40;80.00;;;;;;4829565;29;20463;-79
2021/04/01 06:23:41;;;;;;;12.10;9.50;;;12.50;80.10;;;;;;4829675;29;20538;-79
2021/04/01 06:26:16;;;;;;;16.83;8.20;;;12.60;80.00;;;;;;4830015;29;20458;-78
2021/04/01 06:28:45;;;;;;;17.70;8.53;;;12.70;80.00;;;;;;4829357;29;20454;-79
2021/04/01 06:31:12;;;;;;;15.90;9.77;;;12.70;79.80;;;;;;4829466;29;20480;-79
2021/04/01 06:33:44;;;;;;;13.47;9.50;;;12.80;79.70;;;;;;4829528;29;20839;-79
2021/04/01 06:36:18;;;;;;;17.67;8.13;;;12.90;79.50;;;;;;4830374;29;20469;-79
2021/04/01 06:38:45;;;;;;;9.97;8.87;;;13.00;79.00;;;;;;4830261;29;20487;-79
2021/04/01 06:41:21;;;;;;;12.60;9.30;;;13.10;78.60;;;;;;4830258;29;20478;-79
2021/04/01 06:44:01;;;;;;;11.83;8.47;;;13.10;78.30;;;;;;4830023;29;20805;-79
2021/04/01 06:46:30;;;;;;;11.53;9.00;;;13.20;78.00;;;;;;4830632;29;20555;-79
2021/04/01 06:51:56;;;;;;;13.10;8.07;;;13.50;77.30;;;;;;4817698;29;20500;-79
2021/04/01 06:54:31;;;;;;;10.17;9.00;;;13.60;76.60;;;;;;4828691;29;20873;-79
2021/04/01 06:57:15;;;;;;;9.53;7.40;;;13.80;75.50;;;;;;4829332;29;20476;-80
2021/04/01 06:59:58;;;;;;;11.47;7.67;;;13.90;75.80;;;;;;4825550;29;20463;-79
2021/04/01 07:02:32;;;;;;;9.13;8.03;;;14.10;75.90;;;;;;4826713;29;20455;-79
2021/04/01 07:05:15;;;;;;;10.13;8.17;;;14.40;74.30;;;;;;4827158;29;20471;-79
2021/04/01 07:07:49;;;;;;;12.60;8.20;;;14.50;73.40;;;;;;4825169;29;20464;-79
2021/04/01 07:10:22;;;;;;;18.30;9.00;;;14.70;72.70;;;;;;4825436;29;20499;-79
2021/04/01 07:12:50;;;;;;;10.03;8.63;;;14.90;73.20;;;;;;4825473;29;20470;-79
2021/04/01 07:15:20;;;;;;;10.60;8.70;;;15.10;72.50;;;;;;4825209;29;20451;-79
2021/04/01 07:17:51;;;;;;;14.27;9.07;;;15.20;72.10;;;;;;4825190;29;20579;-79
2021/04/01 07:20:37;;;;;;;13.70;8.30;;;15.30;71.70;;;;;;4824973;29;20531;-79
2021/04/01 07:23:49;;;;;;;15.33;9.70;;;15.50;71.70;;;;;;4823133;29;20459;-78
2021/04/01 07:32:15;;;;;;;9.57;8.07;;;15.80;70.50;;;;;;4824034;29;20937;-79
2021/04/01 07:34:59;;;;;;;10.03;7.87;;;15.80;70.20;;;;;;4827874;29;20468;-80
2021/04/01 07:46:19;;;;;;;11.23;8.07;;;16.00;71.00;;;;;;4827893;29;20437;-80
2021/04/01 07:48:48;;;;;;;8.13;7.37;;;16.10;71.00;;;;;;4827519;29;20831;-79
2021/04/01 07:51:28;;;;;;;12.10;8.93;;;16.20;71.00;;;;;;4828244;29;20456;-82
2021/04/01 07:53:55;;;;;;;12.03;9.23;;;16.40;71.70;;;;;;4828017;29;20466;-80
2021/04/01 07:56:28;;;;;;;11.97;7.80;;;16.50;70.70;;;;;;4828279;29;20462;-79
2021/04/01 07:59:18;;;;;;;9.90;8.90;;;16.60;70.00;;;;;;4829298;29;20508;-80
2021/04/01 08:01:53;;;;;;;10.07;6.53;;;16.80;68.80;;;;;;4829115;29;20473;-80
2021/04/01 08:04:20;;;;;;;9.77;7.97;;;17.00;68.80;;;;;;4828708;29;20465;-79
2021/04/01 08:06:46;;;;;;;13.73;8.13;;;17.20;68.10;;;;;;4829408;29;20490;-79
2021/04/01 08:09:18;;;;;;;10.80;7.60;;;17.30;67.20;;;;;;4829529;29;20457;-79
2021/04/01 08:11:47;;;;;;;14.23;8.40;;;17.60;66.70;;;;;;4828967;29;20843;-79
2021/04/01 08:14:16;;;;;;;14.63;9.03;;;17.70;66.70;;;;;;4829247;29;20928;-79
2021/04/01 08:16:50;;;;;;;7.87;7.13;;;17.90;66.70;;;;;;4829120;29;20488;-79
2021/04/01 08:19:21;;;;;;;11.87;7.80;;;18.00;65.80;;;;;;4829251;29;21076;-79
2021/04/01 08:21:52;;;;;;;8.57;7.60;;;18.20;65.50;;;;;;4829356;29;21044;-79
2021/04/01 08:24:20;;;;;;;9.97;6.13;;;18.40;65.30;;;;;;4829398;29;20960;-79
2021/04/01 08:27:10;;;;;;;11.93;9.10;;;18.60;65.50;;;;;;4829720;29;20524;-79
2021/04/01 08:32:48;;;;;;;19.83;9.30;;;19.00;64.40;;;;;;4822153;29;20462;-79
2021/04/01 08:35:15;;;;;;;16.80;8.07;;;19.10;64.20;;;;;;4829273;29;20953;-79
2021/04/01 08:37:52;;;;;;;15.00;7.80;;;19.30;63.70;;;;;;4829491;29;20513;-79
2021/04/01 08:40:18;;;;;;;10.43;7.77;;;19.40;63.70;;;;;;4829636;29;20561;-79
2021/04/01 08:43:26;;;;;;;9.97;7.70;;;19.50;62.80;;;;;;4829038;29;20470;-79
2021/04/01 08:46:22;;;;;;;10.97;8.23;;;19.60;62.70;;;;;;4829242;29;21073;-79
2021/04/01 08:49:07;;;;;;;7.73;6.90;;;19.80;63.10;;;;;;4829019;29;20486;-79
2021/04/01 08:52:04;;;;;;;8.90;6.73;;;20.10;62.60;;;;;;4828886;29;20463;-79
2021/04/01 08:54:39;;;;;;;10.40;6.57;;;20.30;61.00;;;;;;4829213;29;20471;-79
2021/04/01 08:57:10;;;;;;;7.73;6.50;;;20.60;61.60;;;;;;4829043;29;20484;-79
2021/04/01 08:59:46;;;;;;;4.33;3.70;;;21.00;58.80;;;;;;4829073;29;20497;-79
2021/04/01 09:02:19;;;;;;;5.70;3.43;;;21.20;56.20;;;;;;4829263;29;20463;-79
2021/04/01 09:04:48;;;;;;;3.60;3.30;;;21.50;54.10;;;;;;4828717;29;20469;-79
2021/04/01 09:07:22;;;;;;;4.93;3.70;;;21.60;54.80;;;;;;4828652;29;20486;-79
2021/04/01 09:09:50;;;;;;;3.50;3.20;;;21.80;54.00;;;;;;4829094;29;20455;-79
2021/04/01 09:12:21;;;;;;;4.00;3.13;;;21.90;53.30;;;;;;4828867;29;20465;-79
2021/04/01 09:14:57;;;;;;;3.67;3.00;;;22.10;53.00;;;;;;4828632;29;20465;-79
2021/04/01 09:17:30;;;;;;;4.93;3.50;;;22.30;52.70;;;;;;4828934;29;20470;-79
2021/04/01 09:19:57;;;;;;;3.30;3.10;;;22.40;51.80;;;;;;4828762;29;21004;-79
2021/04/01 09:22:26;;;;;;;6.20;3.97;;;22.60;51.20;;;;;;4828945;29;20471;-79
2021/04/01 09:24:56;;;;;;;3.77;3.47;;;22.60;50.80;;;;;;4832616;29;20851;-79
2021/04/01 09:27:22;;;;;;;4.70;3.10;;;22.60;50.60;;;;;;4831672;29;20471;-79
2021/04/01 09:29:59;;;;;;;4.37;3.80;;;22.70;50.00;;;;;;4831808;29;20466;-79
2021/04/01 09:32:27;;;;;;;4.50;4.10;;;22.80;50.00;;;;;;4832143;29;20466;-79
2021/04/01 09:34:59;;;;;;;6.13;3.70;;;22.70;50.20;;;;;;4832605;29;20463;-79
2021/04/01 09:37:25;;;;;;;4.43;3.37;;;22.60;50.30;;;;;;4832404;29;20486;-79
2021/04/01 09:39:54;;;;;;;7.30;4.00;;;22.60;51.00;;;;;;4832307;29;20867;-79
2021/04/01 09:42:20;;;;;;;5.30;3.87;;;22.70;51.40;;;;;;4832445;29;20459;-80
2021/04/01 09:44:52;;;;;;;6.80;4.00;;;22.80;52.00;;;;;;4832584;29;20457;-79
2021/04/01 09:47:24;;;;;;;4.20;3.80;;;22.70;49.90;;;;;;4832581;29;20842;-80
2021/04/01 09:49:54;;;;;;;5.63;5.07;;;22.90;50.60;;;;;;4832229;29;20565;-80
2021/04/01 09:52:27;;;;;;;5.87;5.23;;;22.90;54.70;;;;;;4831977;29;20458;-81
2021/04/01 09:54:58;;;;;;;5.70;5.10;;;23.00;55.70;;;;;;4832272;29;20830;-81
2021/04/01 09:57:38;;;;;;;7.70;5.70;;;23.10;56.30;;;;;;4831260;29;20479;-81
2021/04/01 10:00:14;;;;;;;5.53;5.13;;;22.90;52.40;;;;;;4831980;29;20458;-81
2021/04/01 10:02:42;;;;;;;5.87;5.13;;;22.80;52.80;;;;;;4830870;29;20470;-81
2021/04/01 10:05:11;;;;;;;11.63;5.80;;;22.80;52.60;;;;;;4831430;29;20461;-81
2021/04/01 10:07:53;;;;;;;7.90;6.10;;;22.70;53.00;;;;;;4831237;29;20484;-80
2021/04/01 10:10:34;;;;;;;9.50;6.10;;;22.70;53.10;;;;;;4831584;29;20834;-81
2021/04/01 10:13:00;;;;;;;6.87;6.27;;;22.70;52.60;;;;;;4831463;29;20550;-81
2021/04/01 10:15:30;;;;;;;9.97;6.13;;;22.60;52.60;;;;;;4828936;29;20450;-79
2021/04/01 10:17:59;;;;;;;8.60;5.80;;;22.60;52.80;;;;;;4828022;29;20501;-80
2021/04/01 10:20:26;;;;;;;6.50;5.90;;;22.80;54.10;;;;;;4828029;29;20547;-79
2021/04/01 10:23:05;;;;;;;7.70;5.97;;;22.90;52.70;;;;;;4826769;29;20471;-78
2021/04/01 10:25:37;;;;;;;7.20;5.37;;;22.90;51.60;;;;;;4827830;29;20451;-79
2021/04/01 10:28:09;;;;;;;7.07;5.50;;;22.70;51.50;;;;;;4826484;29;20479;-79
2021/04/01 10:30:36;;;;;;;6.77;5.23;;;22.70;51.70;;;;;;4826864;29;21009;-78
2021/04/01 10:33:08;;;;;;;5.60;5.13;;;22.90;52.40;;;;;;4827650;29;20524;-79
2021/04/01 10:35:36;;;;;;;10.33;6.03;;;23.00;52.70;;;;;;4831752;29;20460;-77
2021/04/01 10:38:04;;;;;;;5.97;5.47;;;23.30;53.50;;;;;;4843383;29;20495;-77
2021/04/01 10:40:33;;;;;;;8.13;6.40;;;23.40;50.70;;;;;;4844209;29;20455;-78
2021/04/01 10:43:05;;;;;;;5.97;5.47;;;23.10;50.80;;;;;;4840658;29;20535;-79
2021/04/01 10:45:35;;;;;;;6.87;4.47;;;23.20;51.70;;;;;;4827962;29;20464;-79
2021/04/01 10:48:20;;;;;;;6.30;5.40;;;23.30;50.90;;;;;;4827865;29;20475;-79
2021/04/01 10:50:47;;;;;;;6.67;6.07;;;23.40;50.70;;;;;;4827333;29;20474;-79
2021/04/01 10:53:19;;;;;;;7.37;6.30;;;23.60;51.70;;;;;;4827556;29;20486;-78
2021/04/01 10:55:46;;;;;;;9.10;6.53;;;23.80;51.10;;;;;;4828256;29;20463;-79
2021/04/01 10:58:14;;;;;;;7.83;5.47;;;23.90;50.90;;;;;;4828233;29;20524;-79
2021/04/01 11:00:41;;;;;;;6.37;4.77;;;24.00;50.90;;;;;;4827947;29;20499;-79
2021/04/01 11:03:16;;;;;;;8.30;4.67;;;24.30;49.30;;;;;;4827879;29;20474;-78
2021/04/01 11:05:43;;;;;;;5.07;4.57;;;24.60;48.90;;;;;;4828707;29;20458;-81
2021/04/01 11:08:11;;;;;;;5.57;5.17;;;25.00;47.90;;;;;;4830752;29;20481;-81
2021/04/01 11:10:39;;;;;;;8.87;5.20;;;25.40;47.30;;;;;;4829132;29;20509;-80
2021/04/01 11:13:07;;;;;;;7.33;5.90;;;25.80;47.40;;;;;;4828498;29;20499;-81
2021/04/01 11:15:35;;;;;;;6.37;5.30;;;26.30;48.50;;;;;;4828810;29;20530;-81
2021/04/01 11:18:04;;;;;;;6.60;5.87;;;26.80;47.70;;;;;;4828656;29;20867;-80
2021/04/01 11:20:32;;;;;;;6.00;5.43;;;27.40;46.80;;;;;;4827878;29;20977;-81
2021/04/01 11:23:00;;;;;;;5.87;5.27;;;28.00;47.00;;;;;;4827875;29;20883;-81
2021/04/01 11:25:27;;;;;;;8.67;6.00;;;28.70;45.10;;;;;;4828607;29;20469;-81
2021/04/01 11:27:55;;;;;;;5.50;5.10;;;29.20;43.90;;;;;;4828580;29;20475;-82
2021/04/01 11:30:23;;;;;;;5.33;4.70;;;29.90;42.70;;;;;;4829828;29;20470;-82
2021/04/01 11:32:52;;;;;;;5.07;4.57;;;30.40;41.30;;;;;;4829846;29;20466;-83
2021/04/01 11:35:21;;;;;;;5.70;5.17;;;30.90;40.20;;;;;;4829528;29;20461;-82
2021/04/01 11:37:50;;;;;;;6.00;4.83;;;31.40;38.70;;;;;;4829294;29;20500;-83
2021/04/01 11:40:17;;;;;;;6.03;5.43;;;31.80;38.30;;;;;;4830427;29;20947;-82
2021/04/01 11:42:53;;;;;;;7.43;5.33;;;32.10;37.60;;;;;;4828842;29;20471;-82
2021/04/01 11:45:31;;;;;;;5.80;5.27;;;32.40;36.60;;;;;;4828861;29;20457;-82
2021/04/01 11:47:58;;;;;;;5.37;4.73;;;32.50;35.80;;;;;;4830060;29;20532;-82
2021/04/01 11:50:26;;;;;;;6.03;5.43;;;32.50;35.60;;;;;;4827615;29;20624;-81
2021/04/01 11:52:59;;;;;;;5.87;5.33;;;32.10;35.00;;;;;;4827171;29;20482;-81
2021/04/01 11:55:26;;;;;;;5.10;4.60;;;32.10;35.80;;;;;;4827713;29;20493;-80
2021/04/01 11:57:54;;;;;;;6.77;6.00;;;32.10;37.50;;;;;;4828361;29;20482;-80
2021/04/01 12:00:24;;;;;;;6.30;5.60;;;32.30;36.60;;;;;;4829219;29;20527;-79
2021/04/01 12:02:56;;;;;;;5.13;4.73;;;32.50;36.60;;;;;;4827116;29;20468;-80
2021/04/01 12:05:24;;;;;;;5.80;4.67;;;32.90;36.00;;;;;;4827508;29;20982;-80
2021/04/01 12:07:51;;;;;;;7.43;4.47;;;33.40;34.80;;;;;;4827666;29;20482;-81
2021/04/01 12:24:18;;;;;;;5.17;4.27;;;35.10;31.30;;;;;;4686497;30;20478;-83
2021/04/01 12:27:27;;;;;;;5.93;4.37;;;35.50;30.80;;;;;;4752527;30;20498;-83
2021/04/01 12:29:56;;;;;;;4.87;4.40;;;35.90;30.20;;;;;;4801997;29;20498;-80
2021/04/01 12:32:30;;;;;;;3.37;3.07;;;36.50;30.00;;;;;;4827681;29;20841;-79
2021/04/01 12:35:13;;;;;;;3.63;3.40;;;36.80;28.40;;;;;;4827697;29;20466;-81
2021/04/01 12:37:40;;;;;;;3.43;2.50;;;36.60;28.00;;;;;;4826759;29;21010;-81
2021/04/01 12:40:16;;;;;;;3.67;2.00;;;35.80;27.30;;;;;;4826353;29;20585;-81
2021/04/01 12:42:43;;;;;;;3.57;3.03;;;35.20;27.50;;;;;;4825904;29;20467;-83
2021/04/01 12:45:22;;;;;;;4.07;3.67;;;34.30;28.50;;;;;;4826191;29;20545;-84
2021/04/01 12:47:51;;;;;;;5.00;3.63;;;33.60;29.40;;;;;;4826185;29;20577;-81
2021/04/01 12:50:17;;;;;;;4.97;3.50;;;32.90;29.90;;;;;;4826005;29;20788;-81
2021/04/01 12:52:46;;;;;;;3.53;2.87;;;32.20;30.30;;;;;;4825577;29;20982;-81
2021/04/01 12:55:16;;;;;;;3.53;3.23;;;31.50;31.60;;;;;;4825548;29;20466;-80
2021/04/01 12:57:44;;;;;;;3.90;3.60;;;30.70;32.20;;;;;;4825496;29;20498;-80
2021/04/01 13:00:11;;;;;;;4.30;3.90;;;30.50;32.90;;;;;;4825575;29;20903;-80
2021/04/01 13:02:38;;;;;;;3.53;3.30;;;30.40;33.40;;;;;;4825098;29;20554;-81
2021/04/01 13:05:06;;;;;;;4.07;3.67;;;30.30;33.80;;;;;;4825315;29;20453;-81
2021/04/01 13:07:44;;;;;;;3.90;3.50;;;30.30;33.60;;;;;;4825210;29;20476;-81
2021/04/01 13:10:31;;;;;;;3.93;3.30;;;30.10;33.70;;;;;;4826005;29;20970;-81
2021/04/01 13:12:58;;;;;;;6.10;4.07;;;29.90;33.40;;;;;;4827549;29;20962;-82
2021/04/01 13:15:25;;;;;;;5.20;3.50;;;30.00;33.60;;;;;;4827947;29;20451;-81
2021/04/01 13:17:51;;;;;;;3.70;3.30;;;30.10;34.40;;;;;;4827691;29;20488;-82
2021/04/01 13:20:18;;;;;;;4.53;3.10;;;30.50;33.90;;;;;;4828476;29;20474;-83
2021/04/01 13:22:56;;;;;;;7.70;3.67;;;30.90;33.60;;;;;;4828255;29;20468;-82
2021/04/01 13:25:22;;;;;;;4.23;3.33;;;31.10;32.90;;;;;;4828604;29;20470;-82
2021/04/01 13:27:51;;;;;;;3.60;3.30;;;31.20;32.20;;;;;;4827874;29;21002;-83
2021/04/01 13:30:22;;;;;;;5.67;4.30;;;31.10;32.30;;;;;;4828766;29;20476;-81
2021/04/01 13:32:56;;;;;;;3.53;3.13;;;30.50;32.30;;;;;;4829897;29;20461;-82
2021/04/01 13:35:26;;;;;;;3.17;2.90;;;30.00;32.40;;;;;;4827875;29;20451;-82
2021/04/01 13:37:57;;;;;;;3.30;3.10;;;29.70;33.40;;;;;;4827726;29;20525;-82
2021/04/01 13:40:24;;;;;;;5.73;3.67;;;29.90;33.30;;;;;;4827586;29;20494;-82
2021/04/01 13:42:53;;;;;;;4.45;3.55;;;30.30;33.10;;;;;;4827983;29;20452;-82
2021/04/01 13:45:24;;;;;;;5.87;4.03;;;29.60;32.70;;;;;;4830746;29;20214;-82
2021/04/01 13:47:56;;;;;;;6.40;5.00;;;29.10;34.30;;;;;;4829740;29;20485;-81